TimeCDT,TemperatureF,Dew PointF,Humidity,Sea Level PressureIn,VisibilityMPH,Wind Direction,Wind SpeedMPH,Gust SpeedMPH,PrecipitationIn,Events,Conditions,WindDirDegrees,DateUTC
12:15 AM,57.2,37.4,48,30.11,10.0,SW,8.1,-,N/A,,Mostly Cloudy,220,2013-03-15 05:15:00
12:55 AM,57.2,39.2,51,30.11,10.0,SW,8.1,-,N/A,,Overcast,230,2013-03-15 05:55:00
1:15 AM,57.2,39.2,51,30.10,10.0,SW,8.1,-,N/A,,Overcast,230,2013-03-15 06:15:00
2:15 AM,57.2,39.2,51,30.10,10.0,SW,9.2,-,N/A,,Scattered Clouds,230,2013-03-15 07:15:00
2:55 AM,57.2,41.0,55,30.09,10.0,SW,9.2,-,N/A,,Scattered Clouds,230,2013-03-15 07:55:00
3:15 AM,57.2,41.0,55,30.08,10.0,WSW,8.1,-,N/A,,Partly Cloudy,240,2013-03-15 08:15:00
3:35 AM,57.2,41.0,55,30.07,10.0,WSW,6.9,-,N/A,,Partly Cloudy,240,2013-03-15 08:35:00
3:55 AM,57.2,41.0,55,30.07,10.0,WSW,8.1,-,N/A,,Mostly Cloudy,250,2013-03-15 08:55:00
4:15 AM,57.2,41.0,55,30.07,10.0,WSW,6.9,-,N/A,,Mostly Cloudy,250,2013-03-15 09:15:00
4:35 AM,57.2,41.0,55,30.06,10.0,WSW,8.1,-,N/A,,Partly Cloudy,240,2013-03-15 09:35:00
4:55 AM,57.2,41.0,55,30.06,10.0,WSW,8.1,-,N/A,,Partly Cloudy,250,2013-03-15 09:55:00
5:15 AM,55.4,41.0,58,30.06,10.0,WSW,9.2,-,N/A,,Clear,250,2013-03-15 10:15:00
5:35 AM,57.2,41.0,55,30.05,10.0,WSW,9.2,-,N/A,,Clear,240,2013-03-15 10:35:00
5:55 AM,55.4,41.0,58,30.06,10.0,West,6.9,-,N/A,,Clear,260,2013-03-15 10:55:00
6:15 AM,55.4,41.0,58,30.06,10.0,WSW,8.1,-,N/A,,Clear,250,2013-03-15 11:15:00
6:55 AM,55.4,41.0,58,30.05,10.0,SW,5.8,-,N/A,,Clear,230,2013-03-15 11:55:00
7:50 AM,57.2,41.0,55,30.05,10.0,WSW,8.1,-,N/A,,Scattered Clouds,240,2013-03-15 12:50:00
8:50 AM,60.8,41.0,48,30.03,10.0,WSW,11.5,16.1,N/A,,Scattered Clouds,240,2013-03-15 13:50:00
9:50 AM,64.4,42.8,45,30.02,10.0,WSW,11.5,-,N/A,,Mostly Cloudy,240,2013-03-15 14:50:00
10:45 AM,68.0,41.0,37,29.99,10.0,WSW,11.5,19.6,N/A,,Mostly Cloudy,250,2013-03-15 15:45:00
11:45 AM,73.4,41.0,31,29.98,10.0,West,9.2,24.2,N/A,,Mostly Cloudy,260,2013-03-15 16:45:00
12:55 PM,75.2,41.0,29,29.96,10.0,WSW,9.2,19.6,N/A,,Mostly Cloudy,240,2013-03-15 17:55:00
1:52 PM,77.0,39.2,26,29.93,10.0,WSW,11.5,20.7,N/A,,Mostly Cloudy,240,2013-03-15 18:52:00
2:46 PM,80.6,39.2,23,29.89,10.0,SW,15.0,24.2,N/A,,Mostly Cloudy,230,2013-03-15 19:46:00
3:45 PM,80.6,37.4,21,29.86,10.0,SW,17.3,28.8,N/A,,Mostly Cloudy,220,2013-03-15 20:45:00
5:47 PM,77.0,37.4,24,29.83,10.0,SW,15.0,21.9,N/A,,Mostly Cloudy,230,2013-03-15 22:47:00
6:50 PM,75.2,39.2,27,29.82,10.0,SW,13.8,23.0,N/A,,Overcast,220,2013-03-15 23:50:00
7:52 PM,71.6,39.2,31,29.82,10.0,SSW,12.7,-,N/A,,Overcast,210,2013-03-16 00:52:00
8:47 PM,69.8,39.2,33,29.81,10.0,SW,11.5,-,N/A,,Overcast,220,2013-03-16 01:47:00
8:55 PM,69.8,39.2,33,29.81,10.0,SW,8.1,-,N/A,,Clear,220,2013-03-16 01:55:00
9:15 PM,69.8,39.2,33,29.82,10.0,SW,9.2,-,N/A,,Clear,220,2013-03-16 02:15:00
9:35 PM,68.0,39.2,35,29.82,10.0,SW,8.1,-,N/A,,Clear,220,2013-03-16 02:35:00
9:55 PM,68.0,41.0,37,29.82,10.0,SW,8.1,-,N/A,,Clear,220,2013-03-16 02:55:00
10:15 PM,68.0,41.0,37,29.82,10.0,SW,10.4,17.3,N/A,,Clear,220,2013-03-16 03:15:00
10:35 PM,68.0,41.0,37,29.81,10.0,SW,9.2,-,N/A,,Clear,220,2013-03-16 03:35:00
10:55 PM,66.2,41.0,40,29.81,10.0,SW,11.5,16.1,N/A,,Clear,220,2013-03-16 03:55:00
11:15 PM,66.2,42.8,43,29.81,10.0,SW,10.4,17.3,N/A,,Clear,220,2013-03-16 04:15:00
11:35 PM,66.2,42.8,43,29.80,10.0,SSW,10.4,17.3,N/A,,Clear,210,2013-03-16 04:35:00
11:55 PM,66.2,44.6,46,29.79,10.0,SW,11.5,19.6,N/A,,Clear,220,2013-03-16 04:55:00